Time;durP1;ratioP1;P1;durP2;ratioP2;P2;SDS_P1;SDS_P2;PMS_P1;PMS_P2;Temp;Humidity;BMP_temperature;BMP_pressure;BME280_temperature;BME280_humidity;BME280_pressure;Samples;Min_cycle;Max_cycle;Signal;HPM_P1;HPM_P2
2021/09/25 00:00:07;;;;;;;;;;;;;;;21.71;30.78;97820.91;4887614;29;980;-79
2021/09/25 00:02:32;;;;;;;;;;;;;;;21.76;30.85;97832.50;4887253;29;1365;-79
2021/09/25 00:05:05;;;;;;;;;;;;;;;21.73;30.93;97827.72;4887428;29;1389;-79
2021/09/25 00:07:37;;;;;;;;;;;;;;;21.76;30.88;97824.00;4886718;29;1297;-79
2021/09/25 00:10:09;;;;;;;;;;;;;;;21.78;30.79;97837.72;4886970;29;1346;-79
2021/09/25 00:12:41;;;;;;;;;;;;;;;21.82;30.53;97827.88;4885841;29;1263;-79
2021/09/25 00:15:20;;;;;;;;;;;;;;;21.98;30.33;97829.81;4886091;29;1274;-78
2021/09/25 00:17:52;;;;;;;;;;;;;;;21.66;30.78;97836.44;4886071;29;1911;-78
2021/09/25 00:20:24;;;;;;;;;;;;;;;21.71;30.65;97838.72;4886866;29;1278;-78
2021/09/25 00:22:56;;;;;;;;;;;;;;;21.69;30.72;97835.53;4887051;29;1306;-79
2021/09/25 00:25:28;;;;;;;;;;;;;;;22.08;31.00;97839.22;4886655;29;1287;-79
2021/09/25 00:28:00;;;;;;;;;;;;;;;22.30;31.00;97840.16;4886380;29;1272;-79
2021/09/25 00:30:32;;;;;;;;;;;;;;;22.38;31.29;97843.53;4885896;29;1272;-78
2021/09/25 00:32:57;;;;;;;;;;;;;;;22.31;31.12;97841.75;4885943;29;1329;-79
2021/09/25 00:35:30;;;;;;;;;;;;;;;22.07;31.13;97846.13;4886217;29;1338;-79
2021/09/25 00:38:02;;;;;;;;;;;;;;;22.18;30.81;97848.66;4886992;29;2010;-79
2021/09/25 00:40:34;;;;;;;;;;;;;;;21.99;31.23;97847.59;4886520;29;1235;-79
2021/09/25 00:43:06;;;;;;;;;;;;;;;21.94;31.14;97851.78;4886724;29;1286;-80
2021/09/25 00:45:38;;;;;;;;;;;;;;;21.91;31.17;97852.66;4886744;29;937;-78
2021/09/25 00:48:10;;;;;;;;;;;;;;;21.80;31.33;97855.81;4886364;29;1242;-78
2021/09/25 00:50:42;;;;;;;;;;;;;;;21.78;31.18;97861.16;4886505;29;1239;-78
2021/09/25 00:53:14;;;;;;;;;;;;;;;21.91;30.90;97860.38;4886879;29;1278;-79
2021/09/25 00:55:46;;;;;;;;;;;;;;;21.79;31.24;97857.06;4886859;29;1425;-78
2021/09/25 00:58:18;;;;;;;;;;;;;;;21.87;31.12;97857.66;4885837;29;1906;-79
2021/09/25 01:00:50;;;;;;;;;;;;;;;21.83;31.05;97865.47;4886646;29;1031;-79
2021/09/25 01:03:22;;;;;;;;;;;;;;;21.94;30.97;97865.16;4886594;29;850;-79
2021/09/25 01:05:47;;;;;;;;;;;;;;;21.87;31.01;97868.22;4886722;29;1029;-79
2021/09/25 01:08:25;;;;;;;;;;;;;;;21.78;31.04;97872.47;4886336;29;1413;-79
2021/09/25 01:10:57;;;;;;;;;;;;;;;21.90;31.07;97867.28;4886682;29;753;-80
2021/09/25 01:13:30;;;;;;;;;;;;;;;21.83;31.04;97865.47;4884889;29;1240;-79
2021/09/25 01:16:09;;;;;;;;;;;;;;;21.88;30.72;97881.13;4886290;29;933;-79
2021/09/25 01:18:41;;;;;;;;;;;;;;;21.90;30.85;97885.06;4885893;29;1910;-79
2021/09/25 01:21:13;;;;;;;;;;;;;;;21.84;30.72;97884.84;4886437;29;648;-79
2021/09/25 01:23:45;;;;;;;;;;;;;;;21.84;30.59;97893.34;4886123;29;648;-78
2021/09/25 01:26:17;;;;;;;;;;;;;;;21.82;30.72;97895.03;4886598;29;671;-79
2021/09/25 01:28:49;;;;;;;;;;;;;;;21.81;30.75;97893.44;4886162;29;652;-78
2021/09/25 01:31:21;;;;;;;;;;;;;;;21.79;30.80;97899.56;4886262;29;990;-79
2021/09/25 01:33:53;;;;;;;;;;;;;;;21.84;30.65;97899.00;4886076;29;949;-78
2021/09/25 01:36:25;;;;;;;;;;;;;;;21.84;30.70;97899.00;4886285;29;725;-79
2021/09/25 01:38:51;;;;;;;;;;;;;;;22.05;30.37;97896.78;4886306;29;1980;-80
2021/09/25 01:41:23;;;;;;;;;;;;;;;21.67;30.87;97905.97;4886523;29;683;-79
2021/09/25 01:43:55;;;;;;;;;;;;;;;21.94;30.36;97896.31;4886456;29;631;-79
2021/09/25 01:46:27;;;;;;;;;;;;;;;21.93;30.54;97912.53;4886096;29;1104;-79
2021/09/25 01:48:59;;;;;;;;;;;;;;;21.85;30.60;97916.78;4885749;29;1294;-78
2021/09/25 01:51:31;;;;;;;;;;;;;;;21.71;30.78;97911.53;4886126;29;1026;-78
2021/09/25 01:54:04;;;;;;;;;;;;;;;21.78;30.66;97914.16;4886208;29;593;-78
2021/09/25 01:56:36;;;;;;;;;;;;;;;21.79;30.86;97919.38;4886217;29;763;-78
2021/09/25 01:59:08;;;;;;;;;;;;;;;21.75;30.65;97912.22;4886120;29;1977;-78
2021/09/25 02:01:40;;;;;;;;;;;;;;;21.87;30.56;97913.53;4885986;29;971;-78
2021/09/25 02:04:12;;;;;;;;;;;;;;;21.92;30.71;97924.31;4886011;29;837;-78
2021/09/25 02:06:44;;;;;;;;;;;;;;;21.89;30.71;97917.50;4886126;29;796;-78
2021/09/25 02:09:16;;;;;;;;;;;;;;;21.79;30.88;97930.72;4886147;29;588;-78
2021/09/25 02:11:41;;;;;;;;;;;;;;;21.88;30.54;97932.09;4886031;29;703;-78
2021/09/25 02:14:13;;;;;;;;;;;;;;;21.65;30.82;97928.28;4884836;29;1001;-78
2021/09/25 02:16:52;;;;;;;;;;;;;;;21.71;30.57;97929.34;4886465;29;965;-78
2021/09/25 02:19:24;;;;;;;;;;;;;;;21.90;30.73;97938.09;4885626;29;1961;-77
2021/09/25 02:21:56;;;;;;;;;;;;;;;22.17;31.29;97938.53;4885975;29;765;-78
2021/09/25 02:24:28;;;;;;;;;;;;;;;22.39;31.42;97950.03;4886031;29;712;-78
2021/09/25 02:27:02;;;;;;;;;;;;;;;22.52;31.15;97947.22;4885983;29;612;-78
2021/09/25 02:29:34;;;;;;;;;;;;;;;22.23;31.20;97942.44;4885944;29;656;-78
2021/09/25 02:32:06;;;;;;;;;;;;;;;22.01;31.29;97953.53;4885583;29;977;-78
2021/09/25 02:34:38;;;;;;;;;;;;;;;21.93;31.00;97946.50;4885185;29;911;-78
2021/09/25 02:37:10;;;;;;;;;;;;;;;21.94;30.87;97939.59;4885797;29;651;-78
2021/09/25 02:39:42;;;;;;;;;;;;;;;21.97;30.80;97938.72;4885858;29;1907;-78
2021/09/25 02:42:14;;;;;;;;;;;;;;;21.71;31.54;97943.50;4889367;29;710;-78
2021/09/25 02:44:46;;;;;;;;;;;;;;;21.95;30.91;97954.56;4889358;29;635;-78
2021/09/25 02:47:11;;;;;;;;;;;;;;;21.80;31.21;97943.63;4888842;29;946;-78
2021/09/25 02:49:43;;;;;;;;;;;;;;;21.86;31.28;97946.69;4888007;29;1180;-79
2021/09/25 02:52:15;;;;;;;;;;;;;;;21.84;31.32;97955.66;4889052;29;1099;-79
2021/09/25 02:54:47;;;;;;;;;;;;;;;21.76;31.18;97959.94;4888908;29;1401;-80
2021/09/25 02:57:19;;;;;;;;;;;;;;;21.70;31.45;97972.25;4889060;29;645;-79
2021/09/25 02:59:51;;;;;;;;;;;;;;;21.76;31.09;97970.44;4888758;29;1903;-79
2021/09/25 03:02:23;;;;;;;;;;;;;;;21.75;31.02;97983.81;4888056;29;954;-79
2021/09/25 03:04:55;;;;;;;;;;;;;;;21.90;30.99;97980.59;4888655;29;837;-79
2021/09/25 03:07:27;;;;;;;;;;;;;;;21.88;30.90;97989.56;4888745;29;647;-79
2021/09/25 03:09:59;;;;;;;;;;;;;;;21.96;30.88;98001.47;4888667;29;1416;-80
2021/09/25 03:12:31;;;;;;;;;;;;;;;21.95;30.71;98009.19;4888078;29;680;-79
2021/09/25 03:15:10;;;;;;;;;;;;;;;21.82;30.86;98014.78;4888523;29;1174;-80
2021/09/25 03:17:42;;;;;;;;;;;;;;;21.77;30.83;98011.72;4888596;29;1899;-78
2021/09/25 03:20:08;;;;;;;;;;;;;;;21.82;30.82;98016.84;4888274;29;1373;-78
2021/09/25 03:22:40;;;;;;;;;;;;;;;21.94;30.76;98024.59;4887874;29;847;-78
2021/09/25 03:25:14;;;;;;;;;;;;;;;21.81;31.03;98015.22;4888519;29;663;-79
2021/09/25 03:27:46;;;;;;;;;;;;;;;21.95;30.60;98026.16;4888443;29;628;-79
2021/09/25 03:30:18;;;;;;;;;;;;;;;21.70;31.30;98018.34;4888494;29;662;-79
2021/09/25 03:32:50;;;;;;;;;;;;;;;21.88;30.91;98031.25;4888011;29;1393;-78
2021/09/25 03:35:22;;;;;;;;;;;;;;;21.85;30.99;98036.56;4887988;29;858;-79
2021/09/25 03:37:54;;;;;;;;;;;;;;;21.90;30.80;98031.59;4888265;29;1903;-79
2021/09/25 03:40:26;;;;;;;;;;;;;;;21.79;31.02;98041.16;4888328;29;697;-79
2021/09/25 03:42:58;;;;;;;;;;;;;;;21.85;30.68;98047.09;4888189;29;589;-80
2021/09/25 03:45:30;;;;;;;;;;;;;;;21.82;30.81;98043.13;4887841;29;1417;-78
2021/09/25 03:48:05;;;;;;;;;;;;;;;21.87;30.66;98050.28;4887818;29;956;-79
2021/09/25 03:50:37;;;;;;;;;;;;;;;21.98;30.59;98047.16;4887732;29;938;-79
2021/09/25 03:53:09;;;;;;;;;;;;;;;21.82;31.10;98048.00;4887013;29;1370;-79
2021/09/25 03:55:41;;;;;;;;;;;;;;;21.86;30.66;98048.66;4888015;29;699;-79
2021/09/25 03:58:06;;;;;;;;;;;;;;;21.84;30.66;98057.63;4887941;29;1972;-79
2021/09/25 04:00:42;;;;;;;;;;;;;;;21.91;30.80;98055.84;4887867;29;597;-79
2021/09/25 04:03:14;;;;;;;;;;;;;;;21.87;30.76;98072.16;4887668;29;1314;-79
2021/09/25 04:05:46;;;;;;;;;;;;;;;21.87;30.66;98066.50;4887357;29;869;-79
2021/09/25 04:08:18;;;;;;;;;;;;;;;21.81;30.93;98067.03;4887676;29;693;-79
2021/09/25 04:10:50;;;;;;;;;;;;;;;21.81;30.71;98072.69;4887642;29;660;-79
2021/09/25 04:13:22;;;;;;;;;;;;;;;21.88;30.63;98076.56;4886366;29;1333;-79
2021/09/25 04:16:01;;;;;;;;;;;;;;;21.81;30.74;98080.38;4887731;29;660;-79
2021/09/25 04:18:33;;;;;;;;;;;;;;;21.87;30.88;98077.81;4886623;29;1911;-79
2021/09/25 04:21:05;;;;;;;;;;;;;;;21.90;30.71;98082.56;4887208;29;877;-79
2021/09/25 04:23:37;;;;;;;;;;;;;;;21.83;30.44;98087.19;4887532;29;684;-79
2021/09/25 04:26:09;;;;;;;;;;;;;;;21.85;30.65;98087.53;4887425;29;679;-79
2021/09/25 04:28:41;;;;;;;;;;;;;;;21.90;30.63;98088.25;4887404;29;695;-79
2021/09/25 04:31:13;;;;;;;;;;;;;;;21.82;30.79;98099.78;4887384;29;694;-79
2021/09/25 04:33:38;;;;;;;;;;;;;;;21.75;30.77;98105.59;4887252;29;955;-79
2021/09/25 04:36:13;;;;;;;;;;;;;;;21.77;30.73;98114.47;4886993;29;887;-80
2021/09/25 04:38:46;;;;;;;;;;;;;;;21.72;30.89;98112.16;4887113;29;1903;-79
2021/09/25 04:41:18;;;;;;;;;;;;;;;21.83;30.92;98118.34;4887134;29;616;-77
2021/09/25 04:43:51;;;;;;;;;;;;;;;21.77;30.56;98130.66;4886519;29;1106;-79
2021/09/25 04:46:23;;;;;;;;;;;;;;;21.83;30.53;98121.19;4886930;29;1301;-79
2021/09/25 04:48:55;;;;;;;;;;;;;;;21.91;30.58;98135.16;4886815;29;888;-80
2021/09/25 04:51:27;;;;;;;;;;;;;;;21.93;30.54;98138.34;4886119;29;1158;-79
2021/09/25 04:53:59;;;;;;;;;;;;;;;22.03;30.43;98126.75;4886692;29;1194;-77
2021/09/25 04:56:31;;;;;;;;;;;;;;;22.25;31.04;98137.53;4886703;29;1154;-79
2021/09/25 04:59:03;;;;;;;;;;;;;;;22.50;31.29;98134.81;4886484;29;1976;-79
2021/09/25 05:01:35;;;;;;;;;;;;;;;22.44;31.61;98145.13;4886310;29;1232;-79
2021/09/25 05:04:10;;;;;;;;;;;;;;;22.08;31.57;98145.25;4885366;29;1108;-79
2021/09/25 05:06:42;;;;;;;;;;;;;;;21.98;31.38;98154.81;4885861;29;1297;-78
2021/09/25 05:09:07;;;;;;;;;;;;;;;22.00;30.98;98143.84;4886237;29;1189;-79
2021/09/25 05:11:39;;;;;;;;;;;;;;;22.05;31.04;98148.97;4885607;29;1355;-79
2021/09/25 05:14:11;;;;;;;;;;;;;;;21.95;31.03;98153.66;4884633;29;1201;-79
2021/09/25 05:16:43;;;;;;;;;;;;;;;21.73;31.36;98153.41;4885569;29;1114;-79
2021/09/25 05:19:15;;;;;;;;;;;;;;;21.85;31.45;98164.00;4885095;29;1919;-80
2021/09/25 05:21:47;;;;;;;;;;;;;;;21.95;31.23;98164.19;4885140;29;1086;-79
2021/09/25 05:24:19;;;;;;;;;;;;;;;21.84;31.50;98165.25;4884803;29;1099;-78
2021/09/25 05:26:51;;;;;;;;;;;;;;;21.79;31.31;98168.63;4884755;29;1320;-79
2021/09/25 05:29:24;;;;;;;;;;;;;;;21.78;31.56;98178.38;4885377;29;1248;-78
2021/09/25 05:32:01;;;;;;;;;;;;;;;21.91;31.15;98178.44;4885477;29;1066;-79
2021/09/25 05:34:33;;;;;;;;;;;;;;;22.02;30.92;98172.50;4886263;29;992;-78
2021/09/25 05:37:05;;;;;;;;;;;;;;;21.95;31.10;98181.19;4886029;29;890;-78
2021/09/25 05:39:37;;;;;;;;;;;;;;;22.00;30.83;98183.50;4885853;29;1976;-79
2021/09/25 05:42:03;;;;;;;;;;;;;;;21.96;31.16;98188.44;4885297;29;1286;-78
2021/09/25 05:44:35;;;;;;;;;;;;;;;22.01;31.11;98190.75;4885975;29;1209;-78
2021/09/25 05:47:07;;;;;;;;;;;;;;;21.88;30.99;98201.22;4886005;29;1364;-78
2021/09/25 05:49:39;;;;;;;;;;;;;;;21.83;31.21;98209.00;4885733;29;1268;-79
2021/09/25 05:52:11;;;;;;;;;;;;;;;21.92;30.92;98211.22;4885059;29;1245;-79
2021/09/25 05:54:43;;;;;;;;;;;;;;;21.99;30.86;98205.38;4885782;29;1177;-78
2021/09/25 05:57:29;;;;;;;;;;;;;;;21.96;31.04;98213.94;4885923;29;1047;-79
2021/09/25 06:00:02;;;;;;;;;;;;;;;21.93;31.17;98223.34;4885805;29;1982;-79
2021/09/25 06:02:40;;;;;;;;;;;;;;;21.55;31.74;98226.66;4885953;29;1165;-78
2021/09/25 06:05:12;;;;;;;;;;;;;;;21.95;31.20;98232.19;4885812;29;1027;-78
2021/09/25 06:07:44;;;;;;;;;;;;;;;21.81;31.03;98239.81;4885381;29;1206;-79
2021/09/25 06:10:16;;;;;;;;;;;;;;;21.80;31.24;98229.69;4886152;29;659;-79
2021/09/25 06:12:48;;;;;;;;;;;;;;;21.78;31.29;98240.69;4885743;29;1182;-79
2021/09/25 06:15:27;;;;;;;;;;;;;;;21.85;30.87;98234.03;4887007;29;1170;-78
2021/09/25 06:17:59;;;;;;;;;;;;;;;21.97;30.88;98241.84;4889129;29;1972;-78
2021/09/25 06:20:25;;;;;;;;;;;;;;;21.97;30.88;98246.72;4889007;29;1281;-79
2021/09/25 06:22:57;;;;;;;;;;;;;;;22.01;30.75;98253.09;4888909;29;1344;-79
2021/09/25 06:25:29;;;;;;;;;;;;;;;21.90;30.68;98252.56;4889246;29;1221;-77
2021/09/25 06:28:01;;;;;;;;;;;;;;;21.85;31.11;98263.16;4889169;29;1193;-80
2021/09/25 06:30:40;;;;;;;;;;;;;;;21.87;30.91;98261.94;4903179;29;1067;-79
2021/09/25 06:33:11;;;;;;;;;;;;;;;21.90;31.02;98263.88;4889457;29;1101;-78
2021/09/25 06:35:43;;;;;;;;;;;;;;;21.84;30.93;98267.25;4888651;29;1366;-78
2021/09/25 06:38:15;;;;;;;;;;;;;;;21.90;31.04;98275.22;4888421;29;1962;-78
2021/09/25 06:40:47;;;;;;;;;;;;;;;22.03;30.86;98267.63;4888788;29;1043;-78
2021/09/25 06:43:19;;;;;;;;;;;;;;;21.92;30.77;98272.75;4888969;29;1331;-80
2021/09/25 06:45:51;;;;;;;;;;;;;;;21.97;30.74;98275.84;4888955;29;1174;-78
2021/09/25 06:48:23;;;;;;;;;;;;;;;22.01;30.73;98275.75;4888750;29;1209;-78
2021/09/25 06:50:55;;;;;;;;;;;;;;;21.90;31.19;98283.72;4888519;29;1198;-77
2021/09/25 06:53:20;;;;;;;;;;;;;;;21.89;31.12;98287.78;4888418;29;1186;-80
2021/09/25 06:55:53;;;;;;;;;;;;;;;21.90;31.07;98280.88;4887914;29;1210;-77
2021/09/25 06:58:25;;;;;;;;;;;;;;;21.90;31.05;98289.38;4888659;29;1978;-78
2021/09/25 07:00:57;;;;;;;;;;;;;;;21.90;30.91;98298.66;4887969;29;1074;-77
2021/09/25 07:03:29;;;;;;;;;;;;;;;21.99;31.00;98300.91;4887884;29;1286;-79
2021/09/25 07:06:01;;;;;;;;;;;;;;;21.93;30.85;98302.69;4888107;29;1117;-80
2021/09/25 07:08:33;;;;;;;;;;;;;;;21.77;31.00;98303.44;4888005;29;1300;-78
2021/09/25 07:11:05;;;;;;;;;;;;;;;21.81;31.07;98304.13;4888266;29;1296;-80
2021/09/25 07:13:30;;;;;;;;;;;;;;;21.93;31.24;98314.81;4888201;29;1316;-78
2021/09/25 07:15:56;;;;;;;;;;;;;;;22.04;30.72;98309.69;4888266;29;1292;-80
2021/09/25 07:18:21;;;;;;;;;;;;;;;21.93;30.94;98320.47;4888550;29;1970;-79
2021/09/25 07:20:47;;;;;;;;;;;;;;;22.05;30.77;98322.59;4888416;29;916;-80
2021/09/25 07:23:12;;;;;;;;;;;;;;;22.03;30.96;98332.81;4888496;29;839;-80
2021/09/25 07:25:39;;;;;;;;;;;;;;;21.94;30.84;98335.44;4888201;29;1117;-79
2021/09/25 07:28:06;;;;;;;;;;;;;;;21.89;31.04;98331.06;4888346;29;932;-78
2021/09/25 07:30:32;;;;;;;;;;;;;;;21.88;31.01;98337.19;4888347;29;695;-78
2021/09/25 07:32:58;;;;;;;;;;;;;;;21.93;30.89;98333.84;4888323;29;688;-78
2021/09/25 07:35:23;;;;;;;;;;;;;;;21.84;31.38;98340.88;4888086;29;1001;-79
2021/09/25 07:37:49;;;;;;;;;;;;;;;21.89;31.07;98335.94;4887847;29;1970;-79
2021/09/25 07:40:14;;;;;;;;;;;;;;;21.92;30.79;98340.75;4888011;29;955;-79
2021/09/25 07:42:40;;;;;;;;;;;;;;;22.01;30.92;98343.75;4888246;29;620;-79
2021/09/25 07:45:07;;;;;;;;;;;;;;;21.94;30.90;98343.94;4887959;29;704;-79
2021/09/25 07:47:32;;;;;;;;;;;;;;;21.98;30.82;98344.66;4903022;29;664;-79
2021/09/25 07:49:58;;;;;;;;;;;;;;;21.91;31.04;98344.78;4887973;29;983;-79
2021/09/25 07:52:23;;;;;;;;;;;;;;;21.94;31.05;98349.59;4888010;29;896;-82
2021/09/25 07:54:48;;;;;;;;;;;;;;;21.99;30.75;98355.53;4902937;29;987;-79
2021/09/25 07:57:14;;;;;;;;;;;;;;;21.82;31.36;98349.03;4888104;29;671;-79
2021/09/25 07:59:39;;;;;;;;;;;;;;;21.94;31.17;98343.94;4887779;29;1907;-79
2021/09/25 08:02:05;;;;;;;;;;;;;;;21.84;31.25;98351.44;4887903;29;646;-79
2021/09/25 08:04:30;;;;;;;;;;;;;;;22.00;30.79;98350.66;4886908;29;1121;-80
2021/09/25 08:06:56;;;;;;;;;;;;;;;21.96;30.84;98364.09;4887452;29;919;-80
2021/09/25 08:09:23;;;;;;;;;;;;;;;21.90;30.93;98361.00;4887703;29;978;-79
2021/09/25 08:11:49;;;;;;;;;;;;;;;21.97;30.76;98365.72;4887779;29;688;-79
2021/09/25 08:14:14;;;;;;;;;;;;;;;21.90;31.26;98361.00;4887427;29;991;-79
2021/09/25 08:16:40;;;;;;;;;;;;;;;22.19;30.80;98361.19;4887520;29;613;-80
2021/09/25 08:19:05;;;;;;;;;;;;;;;21.99;31.03;98363.25;4887216;29;1903;-78
2021/09/25 08:21:31;;;;;;;;;;;;;;;22.09;30.96;98365.03;4901921;29;912;-80
2021/09/25 08:23:56;;;;;;;;;;;;;;;21.93;31.33;98367.84;4887276;29;841;-79
2021/09/25 08:26:22;;;;;;;;;;;;;;;21.91;31.03;98367.47;4902379;29;670;-78
2021/09/25 08:28:47;;;;;;;;;;;;;;;21.97;31.12;98372.19;4902170;29;715;-78
2021/09/25 08:31:13;;;;;;;;;;;;;;;21.95;31.11;98371.03;4887291;29;695;-79
2021/09/25 08:33:38;;;;;;;;;;;;;;;22.01;31.13;98381.38;4886250;29;931;-79
2021/09/25 08:36:04;;;;;;;;;;;;;;;21.90;31.29;98371.53;4886891;29;948;-79
2021/09/25 08:38:29;;;;;;;;;;;;;;;22.01;31.11;98366.44;4886198;29;1974;-77
2021/09/25 08:40:55;;;;;;;;;;;;;;;21.97;31.24;98363.69;4887050;29;877;-79
2021/09/25 08:43:26;;;;;;;;;;;;;;;21.97;31.23;98369.34;4887050;29;650;-80
2021/09/25 08:46:02;;;;;;;;;;;;;;;21.92;31.33;98371.91;4901632;29;651;-80
2021/09/25 08:48:28;;;;;;;;;;;;;;;22.00;31.16;98371.28;4886813;29;1095;-78
2021/09/25 08:50:54;;;;;;;;;;;;;;;22.07;30.99;98365.50;4886633;29;855;-80
2021/09/25 08:53:20;;;;;;;;;;;;;;;22.03;31.13;98369.63;4886712;29;681;-79
2021/09/25 08:55:45;;;;;;;;;;;;;;;21.99;31.19;98377.41;4887043;29;824;-80
2021/09/25 08:58:11;;;;;;;;;;;;;;;22.05;30.87;98367.16;4886818;29;1903;-79
2021/09/25 09:00:37;;;;;;;;;;;;;;;22.05;31.07;98378.47;4886909;29;620;-79
2021/09/25 09:03:35;;;;;;;;;;;;;;;21.98;31.32;98379.44;4886609;29;953;-79
2021/09/25 09:06:19;;;;;;;;;;;;;;;22.03;31.10;98372.47;4865598;29;1156;-79
2021/09/25 09:08:48;;;;;;;;;;;;;;;22.15;30.80;98371.81;4886907;29;809;-79
2021/09/25 09:11:13;;;;;;;;;;;;;;;22.05;31.05;98378.47;4886760;29;636;-79
2021/09/25 09:13:39;;;;;;;;;;;;;;;22.06;31.07;98378.03;4886541;29;1065;-79
2021/09/25 09:16:05;;;;;;;;;;;;;;;21.93;31.39;98382.81;4901746;29;672;-79
2021/09/25 09:18:32;;;;;;;;;;;;;;;21.87;31.32;98380.94;4886345;29;1987;-79
2021/09/25 09:21:00;;;;;;;;;;;;;;;21.91;31.26;98390.13;4886296;29;872;-80
2021/09/25 09:23:25;;;;;;;;;;;;;;;21.90;31.59;98388.53;4886416;29;888;-80
2021/09/25 09:25:51;;;;;;;;;;;;;;;22.05;30.91;98367.16;4886627;29;651;-78
2021/09/25 09:28:23;;;;;;;;;;;;;;;22.06;30.97;98380.88;4886429;29;651;-79
2021/09/25 09:30:49;;;;;;;;;;;;;;;21.92;31.41;98380.41;4901347;29;656;-79
2021/09/25 09:33:34;;;;;;;;;;;;;;;22.04;31.14;98377.69;4900980;29;916;-79
2021/09/25 09:36:18;;;;;;;;;;;;;;;21.96;31.40;98381.09;4885987;29;965;-78
2021/09/25 09:38:50;;;;;;;;;;;;;;;22.00;31.26;98373.34;4886278;29;1911;-79
2021/09/25 09:41:19;;;;;;;;;;;;;;;22.05;31.16;98378.47;4886310;29;608;-78
2021/09/25 09:43:44;;;;;;;;;;;;;;;22.01;31.21;98383.44;4886262;29;708;-79
2021/09/25 09:46:10;;;;;;;;;;;;;;;21.97;31.36;98382.72;4886488;29;712;-79
2021/09/25 09:48:35;;;;;;;;;;;;;;;21.93;31.51;98382.00;4886028;29;869;-79
2021/09/25 09:51:01;;;;;;;;;;;;;;;21.96;31.36;98384.75;4904197;29;936;-79
2021/09/25 09:53:28;;;;;;;;;;;;;;;22.15;31.01;98382.34;4905003;29;944;-80
2021/09/25 09:56:14;;;;;;;;;;;;;;;22.11;31.08;98393.75;4890124;29;735;-79
2021/09/25 09:58:39;;;;;;;;;;;;;;;22.16;30.86;98379.06;4890002;29;1915;-79
2021/09/25 10:01:06;;;;;;;;;;;;;;;22.18;30.87;98382.28;4890092;29;652;-79
2021/09/25 10:03:31;;;;;;;;;;;;;;;22.01;31.24;98389.09;4889638;29;1026;-79
2021/09/25 10:05:56;;;;;;;;;;;;;;;21.94;31.36;98394.94;4904989;29;890;-79
2021/09/25 10:08:22;;;;;;;;;;;;;;;21.98;31.21;98390.00;4889723;29;868;-80
2021/09/25 10:10:47;;;;;;;;;;;;;;;21.96;31.18;98398.09;4889807;29;647;-80
2021/09/25 10:13:16;;;;;;;;;;;;;;;22.25;30.81;98389.81;4890585;29;1356;-79
2021/09/25 10:15:42;;;;;;;;;;;;;;;21.96;31.15;98392.44;4908285;29;947;-80
2021/09/25 10:18:07;;;;;;;;;;;;;;;21.98;31.27;98395.66;4923075;29;1914;-80
2021/09/25 10:20:33;;;;;;;;;;;;;;;22.06;31.11;98397.06;4923112;29;861;-80
2021/09/25 10:22:58;;;;;;;;;;;;;;;22.06;31.17;98385.75;4923252;29;1435;-79
2021/09/25 10:25:24;;;;;;;;;;;;;;;22.08;31.09;98383.28;4923438;29;588;-79
2021/09/25 10:27:49;;;;;;;;;;;;;;;21.99;31.10;98385.91;4923397;29;774;-80
2021/09/25 10:30:14;;;;;;;;;;;;;;;21.98;31.34;98390.00;4907905;29;1034;-79
2021/09/25 10:32:40;;;;;;;;;;;;;;;22.06;31.20;98380.06;4908041;29;857;-79
2021/09/25 10:35:13;;;;;;;;;;;;;;;22.26;30.54;98382.91;4908159;29;1029;-79
2021/09/25 10:37:42;;;;;;;;;;;;;;;22.10;31.02;98386.47;4908201;29;549;-79
2021/09/25 10:40:26;;;;;;;;;;;;;;;22.12;30.90;98378.34;4923124;29;1935;-79
2021/09/25 10:42:57;;;;;;;;;;;;;;;22.02;31.02;98379.34;4922939;29;1070;-79
2021/09/25 10:45:30;;;;;;;;;;;;;;;22.10;30.88;98377.97;4922601;29;891;-79
2021/09/25 10:48:14;;;;;;;;;;;;;;;22.12;30.88;98388.88;4922959;29;667;-79
2021/09/25 10:50:40;;;;;;;;;;;;;;;22.04;31.19;98385.41;4923088;29;719;-79
2021/09/25 10:53:05;;;;;;;;;;;;;;;22.01;31.22;98377.75;4907761;29;706;-79
2021/09/25 10:55:32;;;;;;;;;;;;;;;22.12;30.95;98378.34;4907877;29;604;-79
2021/09/25 10:58:16;;;;;;;;;;;;;;;22.14;30.84;98383.59;4922042;29;1903;-79
2021/09/25 11:01:00;;;;;;;;;;;;;;;22.12;30.97;98392.50;4906855;29;896;-79
2021/09/25 11:03:46;;;;;;;;;;;;;;;22.05;30.90;98384.16;4907631;29;695;-79
2021/09/25 11:06:12;;;;;;;;;;;;;;;22.14;31.03;98380.75;4907612;29;711;-79
2021/09/25 11:08:39;;;;;;;;;;;;;;;22.01;30.95;98383.44;4907546;29;742;-79
2021/09/25 11:11:04;;;;;;;;;;;;;;;22.02;31.24;98379.34;4907644;29;643;-79
2021/09/25 11:13:48;;;;;;;;;;;;;;;22.08;30.92;98366.28;4907131;29;1014;-80
2021/09/25 11:16:14;;;;;;;;;;;;;;;22.19;30.70;98366.84;4907207;29;932;-80
2021/09/25 11:18:51;;;;;;;;;;;;;;;22.28;30.61;98369.91;4922240;29;1974;-79
2021/09/25 11:21:17;;;;;;;;;;;;;;;22.26;30.59;98368.72;4907476;29;793;-79
2021/09/25 11:23:43;;;;;;;;;;;;;;;22.16;31.13;98367.72;4907339;29;708;-80
2021/09/25 11:26:11;;;;;;;;;;;;;;;22.19;30.55;98366.06;4921840;29;853;-80
2021/09/25 11:28:37;;;;;;;;;;;;;;;22.01;31.34;98355.09;4907020;29;960;-80
2021/09/25 11:31:08;;;;;;;;;;;;;;;22.18;31.01;98361.63;4907221;29;1032;-79
2021/09/25 11:33:36;;;;;;;;;;;;;;;22.07;31.22;98359.00;4921532;29;868;-79
2021/09/25 11:36:05;;;;;;;;;;;;;;;22.15;31.14;98371.00;4921611;29;789;-79
2021/09/25 11:38:31;;;;;;;;;;;;;;;22.11;30.77;98365.41;4922459;29;1907;-79
2021/09/25 11:40:58;;;;;;;;;;;;;;;22.02;31.15;98363.19;4906606;29;991;-80
2021/09/25 11:43:23;;;;;;;;;;;;;;;22.03;30.78;98356.25;4921318;29;856;-79
2021/09/25 11:45:49;;;;;;;;;;;;;;;21.98;31.13;98356.00;4906965;29;908;-79
2021/09/25 11:48:16;;;;;;;;;;;;;;;21.96;31.17;98370.56;4906852;29;584;-77
2021/09/25 11:50:42;;;;;;;;;;;;;;;21.97;31.03;98354.41;4906287;29;1424;-79
2021/09/25 11:53:13;;;;;;;;;;;;;;;21.85;31.19;98365.16;4906822;29;842;-79
2021/09/25 11:55:38;;;;;;;;;;;;;;;21.99;30.88;98351.91;4906476;29;920;-80
2021/09/25 11:58:05;;;;;;;;;;;;;;;21.94;30.84;98358.09;4906192;29;1975;-79
2021/09/25 12:00:35;;;;;;;;;;;;;;;21.89;31.06;98350.91;4906728;29;956;-79
2021/09/25 12:03:03;;;;;;;;;;;;;;;21.88;31.04;98362.69;4906752;29;666;-79
2021/09/25 12:05:28;;;;;;;;;;;;;;;21.96;30.41;98364.09;4920675;29;830;-79
2021/09/25 12:07:54;;;;;;;;;;;;;;;21.99;30.38;98354.75;4906332;29;668;-78
2021/09/25 12:10:21;;;;;;;;;;;;;;;21.99;30.37;98366.06;4906225;29;916;-79
2021/09/25 12:12:46;;;;;;;;;;;;;;;21.96;30.52;98353.56;4920406;29;970;-79
2021/09/25 12:15:12;;;;;;;;;;;;;;;21.85;30.56;98359.47;4920807;29;1116;-79
2021/09/25 12:17:40;;;;;;;;;;;;;;;21.99;30.18;98351.91;4921153;29;656;-79
2021/09/25 12:20:20;;;;;;;;;;;;;;;21.93;30.54;98353.66;4906144;29;1973;-78
2021/09/25 12:22:46;;;;;;;;;;;;;;;21.83;30.48;98361.97;4906010;29;704;-79
2021/09/25 12:25:12;;;;;;;;;;;;;;;21.81;30.51;98358.78;4920883;29;1081;-78
2021/09/25 12:27:42;;;;;;;;;;;;;;;21.85;30.63;98362.31;4920831;29;892;-78
2021/09/25 12:30:09;;;;;;;;;;;;;;;21.73;30.59;98357.31;4905326;29;874;-79
2021/09/25 12:32:34;;;;;;;;;;;;;;;21.76;30.53;98356.47;4920489;29;737;-79
2021/09/25 12:35:00;;;;;;;;;;;;;;;21.82;30.53;98362.41;4906007;29;628;-79
2021/09/25 12:37:25;;;;;;;;;;;;;;;21.94;30.44;98366.59;4905780;29;672;-79
2021/09/25 12:39:51;;;;;;;;;;;;;;;21.83;30.54;98367.63;4920622;29;1902;-80
2021/09/25 12:42:26;;;;;;;;;;;;;;;21.83;30.25;98361.97;4905530;29;858;-78
2021/09/25 12:44:52;;;;;;;;;;;;;;;21.85;30.23;98372.84;4905899;29;985;-79
2021/09/25 12:47:17;;;;;;;;;;;;;;;21.79;30.22;98361.22;4905706;29;691;-77
2021/09/25 12:49:43;;;;;;;;;;;;;;;21.71;30.31;98371.13;4920609;29;1297;-76
2021/09/25 12:52:08;;;;;;;;;;;;;;;21.74;30.18;98369.44;4905740;29;613;-79
2021/09/25 12:54:35;;;;;;;;;;;;;;;21.86;30.14;98365.94;4905234;29;918;-79
2021/09/25 12:57:05;;;;;;;;;;;;;;;21.71;30.17;98365.47;4905327;29;920;-79
2021/09/25 12:59:34;;;;;;;;;;;;;;;21.81;30.15;98366.44;4920336;29;1899;-78
2021/09/25 13:02:01;;;;;;;;;;;;;;;21.73;30.44;98368.66;4905040;29;1146;-78
2021/09/25 13:04:27;;;;;;;;;;;;;;;21.83;30.20;98366.84;4920486;29;695;-78
2021/09/25 13:06:53;;;;;;;;;;;;;;;21.71;30.38;98368.31;4905346;29;723;-80
2021/09/25 13:09:18;;;;;;;;;;;;;;;21.75;30.22;98374.66;4905125;29;882;-80
2021/09/25 13:12:02;;;;;;;;;;;;;;;21.77;30.19;98369.38;4905295;29;879;-80
2021/09/25 13:14:29;;;;;;;;;;;;;;;21.73;30.00;98368.66;4905163;29;1136;-79
2021/09/25 13:16:56;;;;;;;;;;;;;;;21.90;30.55;98371.53;4920191;29;627;-79